SEVKG ESUT-ESNV
Flight info
| Callsign | SEVKG |
|---|---|
| Flight time | 0h 56m |
| Altitude | FL060 |
| Route | DCT ESNV |
| Aircraft | P28A/L-S/C |
Departure
| Time | 2026-05-07 06:17 |
|---|---|
| Airport | Hemavan Airport (ESUT) |
Arrival
| Time | 2026-05-07 07:14 |
|---|---|
| Airport | Vilhelmina South Lapland Airport (ESNV) |
| Time | Latitude | Longitude | Altitude | Speed | Heading |
|---|---|---|---|---|---|
| 2026-05-07 06:07 | 65.81207 | 15.07953 | 1507 ft | 0 kts | 243° |
| 2026-05-07 06:14 | 65.81197 | 15.07927 | 1507 ft | 6 kts | 223° |
| 2026-05-07 06:14 | 65.81157 | 15.07793 | 1507 ft | 8 kts | 237° |
| 2026-05-07 06:14 | 65.81135 | 15.07691 | 1507 ft | 7 kts | 242° |
| 2026-05-07 06:15 | 65.81123 | 15.07655 | 1507 ft | 2 kts | 199° |
| 2026-05-07 06:15 | 65.81109 | 15.07656 | 1507 ft | 0 kts | 155° |
| 2026-05-07 06:16 | 65.81075 | 15.07701 | 1507 ft | 24 kts | 151° |
| 2026-05-07 06:16 | 65.80814 | 15.08025 | 1507 ft | 59 kts | 153° |
| 2026-05-07 06:16 | 65.80379 | 15.08565 | 1507 ft | 79 kts | 153° |
| 2026-05-07 06:16 | 65.79889 | 15.09189 | 1593 ft | 79 kts | 153° |
| 2026-05-07 06:17 | 65.79386 | 15.09817 | 1714 ft | 80 kts | 154° |
| 2026-05-07 06:17 | 65.78889 | 15.10447 | 1861 ft | 82 kts | 154° |
| 2026-05-07 06:17 | 65.78379 | 15.11086 | 2046 ft | 83 kts | 154° |
| 2026-05-07 06:17 | 65.77866 | 15.11737 | 2227 ft | 84 kts | 153° |
| 2026-05-07 06:18 | 65.77346 | 15.12387 | 2408 ft | 84 kts | 154° |
| 2026-05-07 06:18 | 65.76826 | 15.13040 | 2586 ft | 85 kts | 154° |
| 2026-05-07 06:18 | 65.76300 | 15.13699 | 2763 ft | 85 kts | 154° |
| 2026-05-07 06:18 | 65.75773 | 15.14361 | 2939 ft | 85 kts | 154° |
| 2026-05-07 06:19 | 65.75245 | 15.15025 | 3114 ft | 85 kts | 154° |
| 2026-05-07 06:19 | 65.74720 | 15.15685 | 3286 ft | 85 kts | 154° |
| 2026-05-07 06:19 | 65.74192 | 15.16349 | 3453 ft | 86 kts | 155° |
| 2026-05-07 06:19 | 65.73658 | 15.17010 | 3618 ft | 86 kts | 156° |
| 2026-05-07 06:20 | 65.73461 | 15.17256 | 3681 ft | 86 kts | 155° |
| 2026-05-07 06:20 | 65.73178 | 15.17616 | 3771 ft | 86 kts | 154° |
| 2026-05-07 06:20 | 65.72650 | 15.18327 | 3924 ft | 88 kts | 153° |
| 2026-05-07 06:21 | 65.72095 | 15.19069 | 4025 ft | 96 kts | 154° |
| 2026-05-07 06:21 | 65.71477 | 15.19900 | 4056 ft | 108 kts | 153° |
| 2026-05-07 06:21 | 65.70788 | 15.20831 | 4044 ft | 118 kts | 153° |
| 2026-05-07 06:21 | 65.70052 | 15.21828 | 4017 ft | 125 kts | 153° |
| 2026-05-07 06:22 | 65.69281 | 15.22868 | 4002 ft | 127 kts | 152° |
| 2026-05-07 06:22 | 65.67727 | 15.24962 | 3989 ft | 128 kts | 153° |
| 2026-05-07 06:22 | 65.66953 | 15.26005 | 3987 ft | 126 kts | 152° |
| 2026-05-07 06:23 | 65.66205 | 15.27006 | 3970 ft | 121 kts | 153° |
| 2026-05-07 06:23 | 65.65479 | 15.27983 | 3969 ft | 117 kts | 153° |
| 2026-05-07 06:23 | 65.64780 | 15.28926 | 3976 ft | 114 kts | 153° |
| 2026-05-07 06:23 | 65.64093 | 15.29853 | 3982 ft | 112 kts | 153° |
| 2026-05-07 06:24 | 65.63415 | 15.30767 | 3987 ft | 112 kts | 153° |
| 2026-05-07 06:24 | 65.62737 | 15.31681 | 3986 ft | 111 kts | 153° |
| 2026-05-07 06:24 | 65.62060 | 15.32591 | 3988 ft | 111 kts | 152° |
| 2026-05-07 06:24 | 65.61387 | 15.33499 | 3987 ft | 111 kts | 152° |
| 2026-05-07 06:25 | 65.60734 | 15.34385 | 4051 ft | 105 kts | 153° |
| 2026-05-07 06:25 | 65.60117 | 15.35226 | 4133 ft | 99 kts | 153° |
| 2026-05-07 06:25 | 65.59532 | 15.36024 | 4222 ft | 94 kts | 153° |
| 2026-05-07 06:25 | 65.58974 | 15.36776 | 4312 ft | 90 kts | 153° |
| 2026-05-07 06:26 | 65.58437 | 15.37497 | 4402 ft | 87 kts | 153° |
| 2026-05-07 06:26 | 65.57912 | 15.38200 | 4474 ft | 86 kts | 153° |
| 2026-05-07 06:26 | 65.57376 | 15.38916 | 4512 ft | 90 kts | 153° |
| 2026-05-07 06:26 | 65.56811 | 15.39673 | 4525 ft | 96 kts | 153° |
| 2026-05-07 06:27 | 65.56217 | 15.40476 | 4522 ft | 101 kts | 153° |
| 2026-05-07 06:27 | 65.55593 | 15.41322 | 4513 ft | 105 kts | 153° |
| 2026-05-07 06:27 | 65.54948 | 15.42200 | 4503 ft | 108 kts | 153° |
| 2026-05-07 06:27 | 65.54287 | 15.43090 | 4500 ft | 109 kts | 152° |
| 2026-05-07 06:28 | 65.53623 | 15.43992 | 4495 ft | 110 kts | 152° |
| 2026-05-07 06:28 | 65.52956 | 15.44900 | 4492 ft | 111 kts | 152° |
| 2026-05-07 06:28 | 65.52288 | 15.45815 | 4494 ft | 111 kts | 152° |
| 2026-05-07 06:28 | 65.51618 | 15.46727 | 4492 ft | 111 kts | 153° |
| 2026-05-07 06:29 | 65.50950 | 15.47630 | 4492 ft | 111 kts | 152° |
| 2026-05-07 06:29 | 65.50278 | 15.48536 | 4491 ft | 111 kts | 153° |
| 2026-05-07 06:29 | 65.49606 | 15.49437 | 4494 ft | 111 kts | 153° |
| 2026-05-07 06:29 | 65.48934 | 15.50333 | 4496 ft | 110 kts | 153° |
| 2026-05-07 06:30 | 65.48262 | 15.51228 | 4495 ft | 111 kts | 153° |
| 2026-05-07 06:30 | 65.47591 | 15.52122 | 4494 ft | 111 kts | 153° |
| 2026-05-07 06:30 | 65.46917 | 15.53017 | 4493 ft | 111 kts | 153° |
| 2026-05-07 06:30 | 65.46244 | 15.53917 | 4492 ft | 110 kts | 153° |
| 2026-05-07 06:31 | 65.45572 | 15.54809 | 4494 ft | 111 kts | 153° |
| 2026-05-07 06:31 | 65.44899 | 15.55702 | 4493 ft | 111 kts | 153° |
| 2026-05-07 06:31 | 65.44226 | 15.56596 | 4496 ft | 110 kts | 153° |
| 2026-05-07 06:31 | 65.43558 | 15.57487 | 4494 ft | 110 kts | 153° |
| 2026-05-07 06:32 | 65.42884 | 15.58384 | 4491 ft | 110 kts | 153° |
| 2026-05-07 06:32 | 65.42213 | 15.59276 | 4494 ft | 110 kts | 153° |
| 2026-05-07 06:32 | 65.41543 | 15.60172 | 4493 ft | 110 kts | 153° |
| 2026-05-07 06:32 | 65.40870 | 15.61068 | 4495 ft | 110 kts | 152° |
| 2026-05-07 06:33 | 65.40203 | 15.61963 | 4491 ft | 111 kts | 153° |
| 2026-05-07 06:33 | 65.39529 | 15.62859 | 4491 ft | 111 kts | 153° |
| 2026-05-07 06:33 | 65.38852 | 15.63765 | 4477 ft | 112 kts | 152° |
| 2026-05-07 06:33 | 65.38177 | 15.64666 | 4473 ft | 112 kts | 153° |
| 2026-05-07 06:34 | 65.37501 | 15.65575 | 4473 ft | 111 kts | 152° |
| 2026-05-07 06:34 | 65.36827 | 15.66480 | 4478 ft | 111 kts | 153° |
| 2026-05-07 06:34 | 65.36183 | 15.67343 | 4580 ft | 101 kts | 153° |
| 2026-05-07 06:34 | 65.35594 | 15.68131 | 4693 ft | 93 kts | 153° |
| 2026-05-07 06:35 | 65.35053 | 15.68846 | 4805 ft | 86 kts | 155° |
| 2026-05-07 06:35 | 65.34509 | 15.69047 | 4924 ft | 74 kts | 186° |
| 2026-05-07 06:35 | 65.34052 | 15.69466 | 5032 ft | 68 kts | 151° |
| 2026-05-07 06:35 | 65.33655 | 15.70005 | 5087 ft | 66 kts | 154° |
| 2026-05-07 06:36 | 65.33257 | 15.70543 | 5134 ft | 66 kts | 154° |
| 2026-05-07 06:36 | 65.32860 | 15.71075 | 5179 ft | 66 kts | 154° |
| 2026-05-07 06:36 | 65.32447 | 15.71629 | 5276 ft | 70 kts | 153° |
| 2026-05-07 06:36 | 65.32010 | 15.72216 | 5385 ft | 75 kts | 154° |
| 2026-05-07 06:37 | 65.31548 | 15.72837 | 5494 ft | 78 kts | 153° |
| 2026-05-07 06:37 | 65.31043 | 15.73514 | 5559 ft | 89 kts | 153° |
| 2026-05-07 06:37 | 65.30462 | 15.74299 | 5573 ft | 103 kts | 153° |
| 2026-05-07 06:37 | 65.29802 | 15.75190 | 5550 ft | 115 kts | 152° |
| 2026-05-07 06:38 | 65.29102 | 15.76121 | 5502 ft | 116 kts | 152° |
| 2026-05-07 06:38 | 65.28397 | 15.77052 | 5472 ft | 115 kts | 152° |
| 2026-05-07 06:38 | 65.27707 | 15.77962 | 5466 ft | 112 kts | 152° |
| 2026-05-07 06:38 | 65.27034 | 15.78852 | 5467 ft | 109 kts | 152° |
| 2026-05-07 06:39 | 65.26375 | 15.79726 | 5471 ft | 108 kts | 152° |
| 2026-05-07 06:39 | 65.25728 | 15.80586 | 5472 ft | 106 kts | 152° |
| 2026-05-07 06:39 | 65.25086 | 15.81439 | 5475 ft | 105 kts | 152° |
| 2026-05-07 06:39 | 65.24448 | 15.82287 | 5476 ft | 104 kts | 152° |
| 2026-05-07 06:40 | 65.23819 | 15.83125 | 5476 ft | 104 kts | 151° |
| 2026-05-07 06:40 | 65.23188 | 15.83963 | 5476 ft | 103 kts | 151° |
| 2026-05-07 06:40 | 65.22561 | 15.84797 | 5476 ft | 103 kts | 151° |
| 2026-05-07 06:40 | 65.21936 | 15.85628 | 5477 ft | 103 kts | 151° |
| 2026-05-07 06:41 | 65.21316 | 15.86453 | 5477 ft | 102 kts | 151° |
| 2026-05-07 06:41 | 65.20695 | 15.87279 | 5482 ft | 102 kts | 151° |
| 2026-05-07 06:41 | 65.20073 | 15.88108 | 5485 ft | 102 kts | 151° |
| 2026-05-07 06:41 | 65.19451 | 15.88936 | 5487 ft | 103 kts | 151° |
| 2026-05-07 06:42 | 65.18826 | 15.89769 | 5491 ft | 104 kts | 151° |
| 2026-05-07 06:42 | 65.18192 | 15.90615 | 5491 ft | 105 kts | 151° |
| 2026-05-07 06:42 | 65.17552 | 15.91468 | 5485 ft | 106 kts | 151° |
| 2026-05-07 06:42 | 65.17125 | 15.92022 | 5488 ft | 106 kts | 152° |
| 2026-05-07 06:43 | 65.16262 | 15.93131 | 5488 ft | 106 kts | 152° |
| 2026-05-07 06:43 | 65.15611 | 15.93966 | 5485 ft | 106 kts | 152° |
| 2026-05-07 06:43 | 65.15177 | 15.94524 | 5488 ft | 106 kts | 152° |
| 2026-05-07 06:43 | 65.14529 | 15.95356 | 5488 ft | 106 kts | 152° |
| 2026-05-07 06:44 | 65.13878 | 15.96194 | 5489 ft | 106 kts | 152° |
| 2026-05-07 06:44 | 65.13227 | 15.97032 | 5487 ft | 107 kts | 152° |
| 2026-05-07 06:44 | 65.12575 | 15.97872 | 5487 ft | 106 kts | 152° |
| 2026-05-07 06:44 | 65.11926 | 15.98708 | 5488 ft | 107 kts | 152° |
| 2026-05-07 06:45 | 65.11273 | 15.99550 | 5486 ft | 107 kts | 152° |
| 2026-05-07 06:45 | 65.10619 | 16.00395 | 5488 ft | 107 kts | 152° |
| 2026-05-07 06:45 | 65.09969 | 16.01233 | 5487 ft | 107 kts | 152° |
| 2026-05-07 06:45 | 65.09313 | 16.02080 | 5486 ft | 107 kts | 152° |
| 2026-05-07 06:46 | 65.08662 | 16.02922 | 5488 ft | 107 kts | 152° |
| 2026-05-07 06:46 | 65.08010 | 16.03765 | 5486 ft | 107 kts | 152° |
| 2026-05-07 06:46 | 65.07360 | 16.04607 | 5486 ft | 107 kts | 152° |
| 2026-05-07 06:46 | 65.06705 | 16.05456 | 5485 ft | 107 kts | 152° |
| 2026-05-07 06:47 | 65.06052 | 16.06289 | 5485 ft | 107 kts | 153° |
| 2026-05-07 06:47 | 65.05396 | 16.07105 | 5487 ft | 107 kts | 153° |
| 2026-05-07 06:47 | 65.04739 | 16.07924 | 5488 ft | 107 kts | 153° |
| 2026-05-07 06:47 | 65.04081 | 16.08743 | 5484 ft | 107 kts | 153° |
| 2026-05-07 06:48 | 65.03427 | 16.09560 | 5486 ft | 106 kts | 153° |
| 2026-05-07 06:48 | 65.02773 | 16.10377 | 5490 ft | 106 kts | 153° |
| 2026-05-07 06:48 | 65.02119 | 16.11194 | 5491 ft | 106 kts | 153° |
| 2026-05-07 06:48 | 65.01467 | 16.12009 | 5491 ft | 106 kts | 153° |
| 2026-05-07 06:49 | 65.00812 | 16.12829 | 5491 ft | 107 kts | 153° |
| 2026-05-07 06:49 | 65.00157 | 16.13649 | 5491 ft | 107 kts | 153° |
| 2026-05-07 06:49 | 64.99501 | 16.14470 | 5491 ft | 107 kts | 152° |
| 2026-05-07 06:49 | 64.98849 | 16.15287 | 5491 ft | 107 kts | 152° |
| 2026-05-07 06:50 | 64.98193 | 16.16110 | 5491 ft | 107 kts | 152° |
| 2026-05-07 06:50 | 64.97537 | 16.16933 | 5492 ft | 107 kts | 152° |
| 2026-05-07 06:50 | 64.96879 | 16.17740 | 5494 ft | 107 kts | 153° |
| 2026-05-07 06:50 | 64.96217 | 16.18539 | 5494 ft | 107 kts | 153° |
| 2026-05-07 06:51 | 64.95540 | 16.19354 | 5418 ft | 114 kts | 153° |
| 2026-05-07 06:51 | 64.94822 | 16.20218 | 5362 ft | 116 kts | 153° |
| 2026-05-07 06:51 | 64.94103 | 16.21085 | 5316 ft | 117 kts | 153° |
| 2026-05-07 06:51 | 64.93381 | 16.21953 | 5266 ft | 117 kts | 153° |
| 2026-05-07 06:52 | 64.92654 | 16.22830 | 5216 ft | 117 kts | 153° |
| 2026-05-07 06:52 | 64.91929 | 16.23702 | 5166 ft | 117 kts | 153° |
| 2026-05-07 06:52 | 64.91200 | 16.24580 | 5116 ft | 118 kts | 153° |
| 2026-05-07 06:52 | 64.90471 | 16.25458 | 5066 ft | 118 kts | 153° |
| 2026-05-07 06:53 | 64.89743 | 16.26333 | 5015 ft | 118 kts | 154° |
| 2026-05-07 06:53 | 64.89009 | 16.27194 | 4964 ft | 118 kts | 154° |
| 2026-05-07 06:53 | 64.88274 | 16.28055 | 4914 ft | 118 kts | 154° |
| 2026-05-07 06:53 | 64.87544 | 16.28910 | 4863 ft | 118 kts | 154° |
| 2026-05-07 06:54 | 64.86810 | 16.29772 | 4813 ft | 118 kts | 154° |
| 2026-05-07 06:54 | 64.86076 | 16.30632 | 4763 ft | 118 kts | 154° |
| 2026-05-07 06:54 | 64.85341 | 16.31495 | 4711 ft | 118 kts | 154° |
| 2026-05-07 06:54 | 64.84607 | 16.32355 | 4661 ft | 118 kts | 154° |
| 2026-05-07 06:55 | 64.83874 | 16.33217 | 4611 ft | 118 kts | 154° |
| 2026-05-07 06:55 | 64.83138 | 16.34069 | 4562 ft | 118 kts | 154° |
| 2026-05-07 06:55 | 64.82404 | 16.34907 | 4511 ft | 118 kts | 155° |
| 2026-05-07 06:55 | 64.81666 | 16.35744 | 4459 ft | 118 kts | 155° |
| 2026-05-07 06:56 | 64.80931 | 16.36574 | 4409 ft | 118 kts | 155° |
| 2026-05-07 06:56 | 64.80195 | 16.37405 | 4358 ft | 118 kts | 155° |
| 2026-05-07 06:56 | 64.79459 | 16.38236 | 4307 ft | 118 kts | 155° |
| 2026-05-07 06:56 | 64.78726 | 16.39064 | 4258 ft | 117 kts | 155° |
| 2026-05-07 06:57 | 64.77989 | 16.39885 | 4206 ft | 117 kts | 155° |
| 2026-05-07 06:57 | 64.77250 | 16.40696 | 4155 ft | 117 kts | 156° |
| 2026-05-07 06:57 | 64.76511 | 16.41501 | 4105 ft | 117 kts | 156° |
| 2026-05-07 06:57 | 64.75770 | 16.42304 | 4054 ft | 117 kts | 156° |
| 2026-05-07 06:58 | 64.75032 | 16.43105 | 4003 ft | 117 kts | 156° |
| 2026-05-07 06:58 | 64.74292 | 16.43901 | 3954 ft | 117 kts | 156° |
| 2026-05-07 06:58 | 64.73546 | 16.44695 | 3899 ft | 118 kts | 158° |
| 2026-05-07 06:58 | 64.72798 | 16.45486 | 3852 ft | 118 kts | 158° |
| 2026-05-07 06:59 | 64.72050 | 16.46265 | 3800 ft | 118 kts | 159° |
| 2026-05-07 06:59 | 64.71297 | 16.47041 | 3752 ft | 118 kts | 158° |
| 2026-05-07 06:59 | 64.70543 | 16.47801 | 3699 ft | 118 kts | 159° |
| 2026-05-07 06:59 | 64.69850 | 16.48780 | 3641 ft | 116 kts | 132° |
| 2026-05-07 07:00 | 64.69566 | 16.50443 | 3635 ft | 107 kts | 107° |
| 2026-05-07 07:00 | 64.69352 | 16.52105 | 3576 ft | 106 kts | 107° |
| 2026-05-07 07:00 | 64.69141 | 16.53754 | 3524 ft | 105 kts | 107° |
| 2026-05-07 07:00 | 64.68923 | 16.55382 | 3469 ft | 105 kts | 107° |
| 2026-05-07 07:01 | 64.68703 | 16.57012 | 3418 ft | 105 kts | 107° |
| 2026-05-07 07:01 | 64.68482 | 16.58639 | 3365 ft | 105 kts | 108° |
| 2026-05-07 07:01 | 64.68261 | 16.60258 | 3313 ft | 105 kts | 108° |
| 2026-05-07 07:01 | 64.68032 | 16.61868 | 3264 ft | 105 kts | 108° |
| 2026-05-07 07:02 | 64.67802 | 16.63483 | 3212 ft | 105 kts | 108° |
| 2026-05-07 07:02 | 64.67574 | 16.65099 | 3161 ft | 105 kts | 108° |
| 2026-05-07 07:02 | 64.67340 | 16.66711 | 3110 ft | 105 kts | 109° |
| 2026-05-07 07:02 | 64.67103 | 16.68310 | 3062 ft | 104 kts | 109° |
| 2026-05-07 07:03 | 64.66865 | 16.69908 | 3009 ft | 105 kts | 109° |
| 2026-05-07 07:03 | 64.66625 | 16.71505 | 2961 ft | 104 kts | 110° |
| 2026-05-07 07:03 | 64.66380 | 16.73091 | 2909 ft | 105 kts | 110° |
| 2026-05-07 07:03 | 64.66131 | 16.74677 | 2860 ft | 104 kts | 110° |
| 2026-05-07 07:04 | 64.65882 | 16.76273 | 2807 ft | 105 kts | 110° |
| 2026-05-07 07:04 | 64.65629 | 16.77860 | 2761 ft | 104 kts | 111° |
| 2026-05-07 07:04 | 64.65382 | 16.79389 | 2712 ft | 104 kts | 111° |
| 2026-05-07 07:04 | 64.65126 | 16.80964 | 2659 ft | 104 kts | 111° |
| 2026-05-07 07:05 | 64.64867 | 16.82523 | 2611 ft | 103 kts | 112° |
| 2026-05-07 07:05 | 64.64603 | 16.84081 | 2559 ft | 103 kts | 112° |
| 2026-05-07 07:05 | 64.64339 | 16.85637 | 2508 ft | 103 kts | 112° |
| 2026-05-07 07:05 | 64.64073 | 16.87181 | 2457 ft | 103 kts | 113° |
| 2026-05-07 07:06 | 64.63798 | 16.88730 | 2402 ft | 104 kts | 113° |
| 2026-05-07 07:06 | 64.63522 | 16.90279 | 2354 ft | 103 kts | 113° |
| 2026-05-07 07:06 | 64.63246 | 16.91816 | 2305 ft | 103 kts | 114° |
| 2026-05-07 07:06 | 64.62962 | 16.93353 | 2255 ft | 103 kts | 114° |
| 2026-05-07 07:07 | 64.62677 | 16.94887 | 2204 ft | 103 kts | 114° |
| 2026-05-07 07:07 | 64.62391 | 16.96415 | 2156 ft | 103 kts | 114° |
| 2026-05-07 07:07 | 64.62099 | 16.97931 | 2102 ft | 103 kts | 115° |
| 2026-05-07 07:07 | 64.61802 | 16.99457 | 2043 ft | 104 kts | 115° |
| 2026-05-07 07:08 | 64.61500 | 17.00981 | 1991 ft | 103 kts | 116° |
| 2026-05-07 07:08 | 64.61201 | 17.02463 | 1979 ft | 99 kts | 116° |
| 2026-05-07 07:08 | 64.60908 | 17.03889 | 1977 ft | 97 kts | 117° |
| 2026-05-07 07:08 | 64.60492 | 17.05052 | 1952 ft | 94 kts | 156° |
| 2026-05-07 07:09 | 64.59888 | 17.05073 | 2024 ft | 83 kts | 184° |
| 2026-05-07 07:09 | 64.59305 | 17.05082 | 2024 ft | 86 kts | 181° |
| 2026-05-07 07:09 | 64.58698 | 17.05089 | 2012 ft | 88 kts | 180° |
| 2026-05-07 07:09 | 64.58077 | 17.05060 | 1997 ft | 90 kts | 187° |
| 2026-05-07 07:10 | 64.57491 | 17.04649 | 2000 ft | 87 kts | 203° |
| 2026-05-07 07:10 | 64.56928 | 17.04115 | 1999 ft | 88 kts | 203° |
| 2026-05-07 07:10 | 64.56367 | 17.03560 | 1989 ft | 88 kts | 210° |
| 2026-05-07 07:10 | 64.56072 | 17.02270 | 1809 ft | 100 kts | 264° |
| 2026-05-07 07:11 | 64.56102 | 17.00905 | 2010 ft | 76 kts | 275° |
| 2026-05-07 07:11 | 64.56194 | 16.99554 | 1889 ft | 91 kts | 279° |
| 2026-05-07 07:11 | 64.56330 | 16.98216 | 1978 ft | 80 kts | 283° |
| 2026-05-07 07:11 | 64.56491 | 16.96916 | 1920 ft | 89 kts | 284° |
| 2026-05-07 07:12 | 64.56659 | 16.95582 | 1966 ft | 83 kts | 284° |
| 2026-05-07 07:12 | 64.56811 | 16.94281 | 1948 ft | 86 kts | 282° |
| 2026-05-07 07:12 | 64.56952 | 16.92936 | 1970 ft | 83 kts | 281° |
| 2026-05-07 07:12 | 64.57081 | 16.91639 | 1977 ft | 80 kts | 281° |
| 2026-05-07 07:13 | 64.57199 | 16.90405 | 1947 ft | 78 kts | 280° |
| 2026-05-07 07:13 | 64.57311 | 16.89229 | 1821 ft | 73 kts | 281° |
| 2026-05-07 07:13 | 64.57409 | 16.88060 | 1631 ft | 75 kts | 277° |
| 2026-05-07 07:13 | 64.57529 | 16.86880 | 1439 ft | 76 kts | 289° |
| 2026-05-07 07:14 | 64.57671 | 16.85725 | 1264 ft | 72 kts | 281° |
| 2026-05-07 07:14 | 64.57779 | 16.84682 | 1151 ft | 56 kts | 280° |
| 2026-05-07 07:14 | 64.57846 | 16.83983 | 1144 ft | 34 kts | 279° |
| 2026-05-07 07:14 | 64.57885 | 16.83569 | 1144 ft | 20 kts | 282° |
| 2026-05-07 07:15 | 64.57916 | 16.83463 | 1144 ft | 8 kts | 354° |
| 2026-05-07 07:15 | 64.57952 | 16.83481 | 1144 ft | 3 kts | 55° |
| 2026-05-07 07:15 | 64.57953 | 16.83572 | 1144 ft | 5 kts | 54° |
| 2026-05-07 07:15 | 64.57973 | 16.83567 | 1144 ft | 0 kts | 293° |